F/V Oceanie — FVBW — position and weather

sailwx.info

Track history (hours):
 
Tides and Currents Weather Stations Pressure Air Temp Water Temp Dewpoint Dewpoint Depression Visibility Wind Speed Wind Dir Waves Ship Positions

F/V Oceanie

Last reported at 2016-May-04 16:33 UTC. Time now 2016-May-04 17:25 UTC.
Position N 47°18' W 003°22'.

Length 16 m.

Type: Fishing. MMSI: 228370000.

Date/timePositionNaut miles runAvg speedWind from/ knotsBaromVisibWave heightAir tempDewpointWater temp
2016-May-04 16:33N 47°18' W 003°22'1 0.7
2016-May-04 15:33N 47°18' W 003°23'5 4.5
2016-May-04 14:33N 47°21' W 003°29'1 1.0
2016-May-04 13:32N 47°22' W 003°29'1 1.4
2016-May-04 12:33N 47°21' W 003°28'1 1.5
2016-May-04 11:33N 47°22' W 003°28'0 0.5
2016-May-04 10:33N 47°23' W 003°28'1 1.2
2016-May-04 09:33N 47°23' W 003°29'1 1.4
2016-May-04 08:33N 47°21' W 003°30'1 1.4
2016-May-04 07:33N 47°22' W 003°28'2 2.0
2016-May-04 06:33N 47°20' W 003°29'2 1.9
2016-May-04 05:33N 47°22' W 003°28'3 3.0
2016-May-04 04:33N 47°25' W 003°29'6 5.9
2016-May-04 03:33N 47°30' W 003°27'10 9.7
2016-May-04 02:33N 47°40' W 003°22'4 4.1
2016-May-04 01:33N 47°44' W 003°22'5 5.4
2016-May-04 00:33N 47°38' W 003°22'3 2.5
2016-May-03 23:33N 47°36' W 003°22'8 7.9
2016-May-03 22:33N 47°28' W 003°23'8 7.7
2016-May-03 21:33N 47°20' W 003°23'9 9.0
2016-May-03 20:33N 47°11' W 003°24'13 0.8
2016-May-03 04:33N 46°58' W 003°23'9 8.9
2016-May-03 03:33N 47°07' W 003°23'9 8.8
2016-May-03 02:33N 47°16' W 003°23'9 9.4
2016-May-03 01:33N 47°25' W 003°23'9 9.5
2016-May-03 00:33N 47°35' W 003°22'9 9.0
2016-May-02 23:33N 47°44' W 003°22'4 3.9
2016-May-02 22:33N 47°40' W 003°22'9 8.9
2016-May-02 21:33N 47°31' W 003°22'9 8.8
2016-May-02 20:33N 47°22' W 003°23'9 9.0
2016-May-02 19:33N 47°13' W 003°23'9 0.6
2016-May-02 03:27N 47°04' W 003°23'8 9.1
2016-May-02 02:33N 47°12' W 003°23'9 9.3
2016-May-02 01:33N 47°22' W 003°23'9 9.3
2016-May-02 00:33N 47°31' W 003°23'9 9.1
2016-May-01 23:33N 47°40' W 003°22'4 0.1
2016-Apr-30 00:18N 47°44' W 003°22'4 5.6
2016-Apr-29 23:33N 47°40' W 003°22'9 8.6
2016-Apr-29 22:33N 47°31' W 003°24'9 8.9
2016-Apr-29 21:34N 47°22' W 003°26'12 8.6
2016-Apr-29 20:12N 47°11' W 003°28'2 2.9
2016-Apr-29 19:33N 47°09' W 003°28'3 2.8
2016-Apr-29 18:33N 47°06' W 003°27'3 0.3
2016-Apr-29 06:33N 47°03' W 003°30'4 3.6
2016-Apr-29 05:33N 47°06' W 003°27'5 4.8
2016-Apr-29 04:34N 47°11' W 003°28'9 9.1
2016-Apr-29 03:34N 47°20' W 003°27'9 9.1
2016-Apr-29 02:34N 47°29' W 003°24'9 9.3
2016-Apr-29 01:33N 47°38' W 003°23'5 5.5
2016-Apr-29 00:33N 47°44' W 003°22'5 5.4
2016-Apr-28 23:34N 47°38' W 003°22'9 8.7
2016-Apr-28 22:34N 47°30' W 003°24'9 8.7
2016-Apr-28 21:33N 47°21' W 003°26'9 7.9
2016-Apr-28 20:24N 47°12' W 003°28'6 3.0
2016-Apr-28 18:27N 47°06' W 003°27'1 0.1
2016-Apr-28 03:31N 47°06' W 003°27'8 7.8
2016-Apr-28 02:34N 47°13' W 003°26'8 8.0
2016-Apr-28 01:33N 47°21' W 003°25'8 8.2
2016-Apr-28 00:34N 47°29' W 003°23'8 8.4
2016-Apr-27 23:34N 47°38' W 003°22'6 6.1
2016-Apr-27 22:33N 47°44' W 003°22'0 0.1
2016-Apr-27 21:34N 47°44' W 003°22'0 0.0
2016-Apr-27 20:33N 47°44' W 003°22'6 6.2
2016-Apr-27 19:34N 47°38' W 003°22'8 8.4
2016-Apr-27 18:33N 47°29' W 003°24'8 8.1
2016-Apr-27 17:34N 47°21' W 003°25'8 7.9
2016-Apr-27 16:34N 47°13' W 003°26'8 0.2
2016-Apr-26 06:09N 47°06' W 003°29'3 4.3
2016-Apr-26 05:27N 47°09' W 003°29'5 5.5
2016-Apr-26 04:33N 47°14' W 003°29'9 8.8
2016-Apr-26 03:33N 47°22' W 003°27'9 8.9
2016-Apr-26 02:33N 47°31' W 003°24'9 9.3
2016-Apr-26 01:33N 47°40' W 003°22'3 3.4
2016-Apr-26 00:33N 47°44' W 003°22'8 8.0
2016-Apr-25 23:33N 47°36' W 003°23'9 8.6
2016-Apr-25 22:33N 47°27' W 003°25'8 8.2
2016-Apr-25 21:33N 47°19' W 003°26'16 1.1
2016-Apr-25 07:09N 47°03' W 003°31'3 4.0
2016-Apr-25 06:27N 47°06' W 003°29'4 4.5
2016-Apr-25 05:33N 47°10' W 003°30'6 5.9
2016-Apr-25 04:33N 47°15' W 003°29'9 8.6
2016-Apr-25 03:33N 47°24' W 003°26'9 8.6
2016-Apr-25 02:33N 47°32' W 003°23'9 8.8
2016-Apr-25 01:33N 47°41' W 003°22'  
Track history (hours):
 
Tides and Currents Weather Stations Pressure Air Temp Water Temp Dewpoint Dewpoint Depression Visibility Wind Speed Wind Dir Waves Ship Positions

F/V Oceanie

Last reported at 2016-May-04 16:33 UTC. Time now 2016-May-04 17:25 UTC.
Position N 47°18' W 003°22'.

Length 16 m.

Type: Fishing. MMSI: 228370000.

Date/timePositionNaut miles runAvg speedWind from/ knotsBaromVisibWave heightAir tempDewpointWater temp
2016-May-04 16:33N 47°18' W 003°22'1 0.7
2016-May-04 15:33N 47°18' W 003°23'5 4.5
2016-May-04 14:33N 47°21' W 003°29'1 1.0
2016-May-04 13:32N 47°22' W 003°29'1 1.4
2016-May-04 12:33N 47°21' W 003°28'1 1.5
2016-May-04 11:33N 47°22' W 003°28'0 0.5
2016-May-04 10:33N 47°23' W 003°28'1 1.2
2016-May-04 09:33N 47°23' W 003°29'1 1.4
2016-May-04 08:33N 47°21' W 003°30'1 1.4
2016-May-04 07:33N 47°22' W 003°28'2 2.0
2016-May-04 06:33N 47°20' W 003°29'2 1.9
2016-May-04 05:33N 47°22' W 003°28'3 3.0
2016-May-04 04:33N 47°25' W 003°29'6 5.9
2016-May-04 03:33N 47°30' W 003°27'10 9.7
2016-May-04 02:33N 47°40' W 003°22'4 4.1
2016-May-04 01:33N 47°44' W 003°22'5 5.4
2016-May-04 00:33N 47°38' W 003°22'3 2.5
2016-May-03 23:33N 47°36' W 003°22'8 7.9
2016-May-03 22:33N 47°28' W 003°23'8 7.7
2016-May-03 21:33N 47°20' W 003°23'9 9.0
2016-May-03 20:33N 47°11' W 003°24'13 0.8
2016-May-03 04:33N 46°58' W 003°23'9 8.9
2016-May-03 03:33N 47°07' W 003°23'9 8.8
2016-May-03 02:33N 47°16' W 003°23'9 9.4
2016-May-03 01:33N 47°25' W 003°23'9 9.5
2016-May-03 00:33N 47°35' W 003°22'9 9.0
2016-May-02 23:33N 47°44' W 003°22'4 3.9
2016-May-02 22:33N 47°40' W 003°22'9 8.9
2016-May-02 21:33N 47°31' W 003°22'9 8.8
2016-May-02 20:33N 47°22' W 003°23'9 9.0
2016-May-02 19:33N 47°13' W 003°23'9 0.6
2016-May-02 03:27N 47°04' W 003°23'8 9.1
2016-May-02 02:33N 47°12' W 003°23'9 9.3
2016-May-02 01:33N 47°22' W 003°23'9 9.3
2016-May-02 00:33N 47°31' W 003°23'9 9.1
2016-May-01 23:33N 47°40' W 003°22'4 0.1
2016-Apr-30 00:18N 47°44' W 003°22'4 5.6
2016-Apr-29 23:33N 47°40' W 003°22'9 8.6
2016-Apr-29 22:33N 47°31' W 003°24'9 8.9
2016-Apr-29 21:34N 47°22' W 003°26'12 8.6
2016-Apr-29 20:12N 47°11' W 003°28'2 2.9
2016-Apr-29 19:33N 47°09' W 003°28'3 2.8
2016-Apr-29 18:33N 47°06' W 003°27'3 0.3
2016-Apr-29 06:33N 47°03' W 003°30'4 3.6
2016-Apr-29 05:33N 47°06' W 003°27'5 4.8
2016-Apr-29 04:34N 47°11' W 003°28'9 9.1
2016-Apr-29 03:34N 47°20' W 003°27'9 9.1
2016-Apr-29 02:34N 47°29' W 003°24'9 9.3
2016-Apr-29 01:33N 47°38' W 003°23'5 5.5
2016-Apr-29 00:33N 47°44' W 003°22'5 5.4
2016-Apr-28 23:34N 47°38' W 003°22'9 8.7
2016-Apr-28 22:34N 47°30' W 003°24'9 8.7
2016-Apr-28 21:33N 47°21' W 003°26'9 7.9
2016-Apr-28 20:24N 47°12' W 003°28'6 3.0
2016-Apr-28 18:27N 47°06' W 003°27'1 0.1
2016-Apr-28 03:31N 47°06' W 003°27'8 7.8
2016-Apr-28 02:34N 47°13' W 003°26'8 8.0
2016-Apr-28 01:33N 47°21' W 003°25'8 8.2
2016-Apr-28 00:34N 47°29' W 003°23'8 8.4
2016-Apr-27 23:34N 47°38' W 003°22'6 6.1
2016-Apr-27 22:33N 47°44' W 003°22'0 0.1
2016-Apr-27 21:34N 47°44' W 003°22'0 0.0
2016-Apr-27 20:33N 47°44' W 003°22'6 6.2
2016-Apr-27 19:34N 47°38' W 003°22'8 8.4
2016-Apr-27 18:33N 47°29' W 003°24'8 8.1
2016-Apr-27 17:34N 47°21' W 003°25'8 7.9
2016-Apr-27 16:34N 47°13' W 003°26'8 0.2
2016-Apr-26 06:09N 47°06' W 003°29'3 4.3
2016-Apr-26 05:27N 47°09' W 003°29'5 5.5
2016-Apr-26 04:33N 47°14' W 003°29'9 8.8
2016-Apr-26 03:33N 47°22' W 003°27'9 8.9
2016-Apr-26 02:33N 47°31' W 003°24'9 9.3
2016-Apr-26 01:33N 47°40' W 003°22'3 3.4
2016-Apr-26 00:33N 47°44' W 003°22'8 8.0
2016-Apr-25 23:33N 47°36' W 003°23'9 8.6
2016-Apr-25 22:33N 47°27' W 003°25'8 8.2
2016-Apr-25 21:33N 47°19' W 003°26'16 1.1
2016-Apr-25 07:09N 47°03' W 003°31'3 4.0
2016-Apr-25 06:27N 47°06' W 003°29'4 4.5
2016-Apr-25 05:33N 47°10' W 003°30'6 5.9
2016-Apr-25 04:33N 47°15' W 003°29'9 8.6
2016-Apr-25 03:33N 47°24' W 003°26'9 8.6
2016-Apr-25 02:33N 47°32' W 003°23'9 8.8
2016-Apr-25 01:33N 47°41' W 003°22'  

Dump ship's entire track history